sensor_id;sensor_type;location;lat;lon;timestamp;temperature;humidity
75899;DHT22;64576;50.460;4.866;2023-09-19T00:00:31;14.28;97.11
75899;DHT22;64576;50.460;4.866;2023-09-19T00:02:58;14.32;96.79
75899;DHT22;64576;50.460;4.866;2023-09-19T00:05:27;14.30;96.70
75899;DHT22;64576;50.460;4.866;2023-09-19T00:07:54;14.37;96.08
75899;DHT22;64576;50.460;4.866;2023-09-19T00:10:21;14.28;96.02
75899;DHT22;64576;50.460;4.866;2023-09-19T00:12:50;14.25;96.28
75899;DHT22;64576;50.460;4.866;2023-09-19T00:15:17;14.28;95.99
75899;DHT22;64576;50.460;4.866;2023-09-19T00:17:43;14.23;96.22
75899;DHT22;64576;50.460;4.866;2023-09-19T00:20:09;14.16;96.30
75899;DHT22;64576;50.460;4.866;2023-09-19T00:22:41;14.16;96.08
75899;DHT22;64576;50.460;4.866;2023-09-19T00:25:08;14.13;96.35
75899;DHT22;64576;50.460;4.866;2023-09-19T00:27:35;14.19;95.95
75899;DHT22;64576;50.460;4.866;2023-09-19T00:30:00;14.15;96.17
75899;DHT22;64576;50.460;4.866;2023-09-19T00:32:26;14.02;96.69
75899;DHT22;64576;50.460;4.866;2023-09-19T00:34:57;13.99;96.51
75899;DHT22;64576;50.460;4.866;2023-09-19T00:37:22;14.08;95.36
75899;DHT22;64576;50.460;4.866;2023-09-19T00:39:47;13.99;95.33
75899;DHT22;64576;50.460;4.866;2023-09-19T00:42:22;14.09;94.04
75899;DHT22;64576;50.460;4.866;2023-09-19T00:44:48;14.05;93.85
75899;DHT22;64576;50.460;4.866;2023-09-19T00:47:17;13.92;93.90
75899;DHT22;64576;50.460;4.866;2023-09-19T00:49:43;13.92;93.92
75899;DHT22;64576;50.460;4.866;2023-09-19T00:52:11;13.99;93.19
75899;DHT22;64576;50.460;4.866;2023-09-19T00:54:37;13.89;93.43
75899;DHT22;64576;50.460;4.866;2023-09-19T00:57:03;13.86;93.52
75899;DHT22;64576;50.460;4.866;2023-09-19T00:59:29;13.92;92.76
75899;DHT22;64576;50.460;4.866;2023-09-19T01:01:56;13.97;92.39
75899;DHT22;64576;50.460;4.866;2023-09-19T01:04:22;13.98;92.56
75899;DHT22;64576;50.460;4.866;2023-09-19T01:06:49;13.94;92.49
75899;DHT22;64576;50.460;4.866;2023-09-19T01:09:21;13.95;92.63
75899;DHT22;64576;50.460;4.866;2023-09-19T01:11:48;13.81;93.34
75899;DHT22;64576;50.460;4.866;2023-09-19T01:14:29;13.78;93.58
75899;DHT22;64576;50.460;4.866;2023-09-19T01:22:37;13.81;93.24
75899;DHT22;64576;50.460;4.866;2023-09-19T01:25:39;13.84;92.82
75899;DHT22;64576;50.460;4.866;2023-09-19T01:28:32;13.77;93.24
75899;DHT22;64576;50.460;4.866;2023-09-19T01:31:04;13.82;92.69
75899;DHT22;64576;50.460;4.866;2023-09-19T01:36:32;13.74;93.28
75899;DHT22;64576;50.460;4.866;2023-09-19T01:39:11;13.74;93.21
75899;DHT22;64576;50.460;4.866;2023-09-19T01:44:06;13.63;93.64
75899;DHT22;64576;50.460;4.866;2023-09-19T01:46:35;13.61;93.62
75899;DHT22;64576;50.460;4.866;2023-09-19T01:52:11;13.55;93.97
75899;DHT22;64576;50.460;4.866;2023-09-19T01:54:52;13.53;93.69
75899;DHT22;64576;50.460;4.866;2023-09-19T01:57:34;13.58;93.23
75899;DHT22;64576;50.460;4.866;2023-09-19T02:00:03;13.68;92.41
75899;DHT22;64576;50.460;4.866;2023-09-19T02:02:34;13.61;92.43
75899;DHT22;64576;50.460;4.866;2023-09-19T02:04:59;13.55;92.77
75899;DHT22;64576;50.460;4.866;2023-09-19T02:07:25;13.51;93.06
75899;DHT22;64576;50.460;4.866;2023-09-19T02:09:52;13.47;92.33
75899;DHT22;64576;50.460;4.866;2023-09-19T02:12:17;13.39;93.29
75899;DHT22;64576;50.460;4.866;2023-09-19T02:14:43;13.44;92.92
75899;DHT22;64576;50.460;4.866;2023-09-19T02:17:08;13.42;92.71
75899;DHT22;64576;50.460;4.866;2023-09-19T02:19:36;13.30;92.89
75899;DHT22;64576;50.460;4.866;2023-09-19T02:22:04;13.43;92.28
75899;DHT22;64576;50.460;4.866;2023-09-19T02:24:35;13.39;92.61
75899;DHT22;64576;50.460;4.866;2023-09-19T02:27:00;13.37;92.68
75899;DHT22;64576;50.460;4.866;2023-09-19T02:29:29;13.36;92.77
75899;DHT22;64576;50.460;4.866;2023-09-19T02:31:55;13.40;92.77
75899;DHT22;64576;50.460;4.866;2023-09-19T02:34:21;13.29;93.13
75899;DHT22;64576;50.460;4.866;2023-09-19T02:36:47;13.26;93.58
75899;DHT22;64576;50.460;4.866;2023-09-19T02:39:12;13.20;94.28
75899;DHT22;64576;50.460;4.866;2023-09-19T02:41:38;13.23;94.04
75899;DHT22;64576;50.460;4.866;2023-09-19T02:44:03;13.17;94.38
75899;DHT22;64576;50.460;4.866;2023-09-19T02:46:33;13.10;94.78
75899;DHT22;64576;50.460;4.866;2023-09-19T02:48:58;13.16;94.81
75899;DHT22;64576;50.460;4.866;2023-09-19T02:51:24;13.17;95.01
75899;DHT22;64576;50.460;4.866;2023-09-19T02:53:50;13.06;95.68
75899;DHT22;64576;50.460;4.866;2023-09-19T02:56:17;12.96;96.31
75899;DHT22;64576;50.460;4.866;2023-09-19T02:58:44;13.02;96.42
75899;DHT22;64576;50.460;4.866;2023-09-19T03:01:10;12.95;96.97
75899;DHT22;64576;50.460;4.866;2023-09-19T03:03:38;12.96;97.19
75899;DHT22;64576;50.460;4.866;2023-09-19T03:06:06;12.93;97.65
75899;DHT22;64576;50.460;4.866;2023-09-19T03:08:34;12.98;97.64
75899;DHT22;64576;50.460;4.866;2023-09-19T03:11:03;13.06;97.62
75899;DHT22;64576;50.460;4.866;2023-09-19T03:13:29;13.02;97.75
75899;DHT22;64576;50.460;4.866;2023-09-19T03:15:56;13.02;97.98
75899;DHT22;64576;50.460;4.866;2023-09-19T03:18:26;12.98;97.90
75899;DHT22;64576;50.460;4.866;2023-09-19T03:20:55;12.99;98.00
75899;DHT22;64576;50.460;4.866;2023-09-19T03:23:22;13.00;98.08
75899;DHT22;64576;50.460;4.866;2023-09-19T03:25:47;13.03;97.86
75899;DHT22;64576;50.460;4.866;2023-09-19T03:28:14;13.03;97.93
75899;DHT22;64576;50.460;4.866;2023-09-19T03:30:40;13.03;98.01
75899;DHT22;64576;50.460;4.866;2023-09-19T03:33:06;13.00;98.15
75899;DHT22;64576;50.460;4.866;2023-09-19T03:35:31;12.93;98.55
75899;DHT22;64576;50.460;4.866;2023-09-19T03:37:57;12.98;98.13
75899;DHT22;64576;50.460;4.866;2023-09-19T03:40:22;12.88;99.13
75899;DHT22;64576;50.460;4.866;2023-09-19T03:42:48;12.89;98.42
75899;DHT22;64576;50.460;4.866;2023-09-19T03:45:14;12.91;98.13
75899;DHT22;64576;50.460;4.866;2023-09-19T03:47:40;12.88;98.33
75899;DHT22;64576;50.460;4.866;2023-09-19T03:50:06;12.96;97.89
75899;DHT22;64576;50.460;4.866;2023-09-19T03:52:36;12.91;98.19
75899;DHT22;64576;50.460;4.866;2023-09-19T03:55:01;12.91;98.17
75899;DHT22;64576;50.460;4.866;2023-09-19T03:57:30;12.91;98.01
75899;DHT22;64576;50.460;4.866;2023-09-19T03:59:55;12.82;98.51
75899;DHT22;64576;50.460;4.866;2023-09-19T04:02:21;12.93;97.77
75899;DHT22;64576;50.460;4.866;2023-09-19T04:04:51;12.92;97.86
75899;DHT22;64576;50.460;4.866;2023-09-19T04:07:17;12.98;97.59
75899;DHT22;64576;50.460;4.866;2023-09-19T04:09:43;12.95;97.81
75899;DHT22;64576;50.460;4.866;2023-09-19T04:12:09;12.93;97.73
75899;DHT22;64576;50.460;4.866;2023-09-19T04:14:34;12.96;97.52
75899;DHT22;64576;50.460;4.866;2023-09-19T04:17:00;13.03;97.05
75899;DHT22;64576;50.460;4.866;2023-09-19T04:19:26;12.99;97.56
75899;DHT22;64576;50.460;4.866;2023-09-19T04:21:52;12.92;97.96
75899;DHT22;64576;50.460;4.866;2023-09-19T04:24:17;12.85;98.38
75899;DHT22;64576;50.460;4.866;2023-09-19T04:26:44;12.82;98.33
75899;DHT22;64576;50.460;4.866;2023-09-19T04:29:10;12.79;98.87
75899;DHT22;64576;50.460;4.866;2023-09-19T04:31:36;12.72;98.92
75899;DHT22;64576;50.460;4.866;2023-09-19T04:34:03;12.77;98.81
75899;DHT22;64576;50.460;4.866;2023-09-19T04:36:28;12.72;98.99
75899;DHT22;64576;50.460;4.866;2023-09-19T04:38:55;12.69;99.12
75899;DHT22;64576;50.460;4.866;2023-09-19T04:41:20;12.72;99.09
75899;DHT22;64576;50.460;4.866;2023-09-19T04:43:47;12.69;99.25
75899;DHT22;64576;50.460;4.866;2023-09-19T04:46:13;12.69;98.97
75899;DHT22;64576;50.460;4.866;2023-09-19T04:48:39;12.72;98.83
75899;DHT22;64576;50.460;4.866;2023-09-19T04:51:05;12.81;98.43
75899;DHT22;64576;50.460;4.866;2023-09-19T04:53:30;12.85;98.45
75899;DHT22;64576;50.460;4.866;2023-09-19T04:55:55;12.81;98.54
75899;DHT22;64576;50.460;4.866;2023-09-19T04:58:22;12.92;97.86
75899;DHT22;64576;50.460;4.866;2023-09-19T05:00:48;13.02;97.56
75899;DHT22;64576;50.460;4.866;2023-09-19T05:03:13;13.00;97.45
75899;DHT22;64576;50.460;4.866;2023-09-19T05:05:38;13.05;97.21
75899;DHT22;64576;50.460;4.866;2023-09-19T05:08:07;13.12;96.89
75899;DHT22;64576;50.460;4.866;2023-09-19T05:10:34;13.09;97.12
75899;DHT22;64576;50.460;4.866;2023-09-19T05:13:03;13.17;96.87
75899;DHT22;64576;50.460;4.866;2023-09-19T05:15:30;13.10;96.78
75899;DHT22;64576;50.460;4.866;2023-09-19T05:17:55;13.15;96.45
75899;DHT22;64576;50.460;4.866;2023-09-19T05:20:21;13.02;96.86
75899;DHT22;64576;50.460;4.866;2023-09-19T05:25:23;13.00;96.77
75899;DHT22;64576;50.460;4.866;2023-09-19T05:27:53;12.99;96.61
75899;DHT22;64576;50.460;4.866;2023-09-19T05:30:18;13.02;96.48
75899;DHT22;64576;50.460;4.866;2023-09-19T05:32:45;13.09;95.88
75899;DHT22;64576;50.460;4.866;2023-09-19T05:35:10;13.09;96.22
75899;DHT22;64576;50.460;4.866;2023-09-19T05:37:38;13.09;95.95
75899;DHT22;64576;50.460;4.866;2023-09-19T05:40:03;13.10;95.83
75899;DHT22;64576;50.460;4.866;2023-09-19T05:42:35;13.08;95.98
75899;DHT22;64576;50.460;4.866;2023-09-19T05:45:01;13.03;96.32
75899;DHT22;64576;50.460;4.866;2023-09-19T05:47:26;13.13;95.98
75899;DHT22;64576;50.460;4.866;2023-09-19T05:49:51;13.15;96.18
75899;DHT22;64576;50.460;4.866;2023-09-19T05:52:17;13.19;95.91
75899;DHT22;64576;50.460;4.866;2023-09-19T05:54:43;13.12;96.12
75899;DHT22;64576;50.460;4.866;2023-09-19T05:57:08;13.10;96.34
75899;DHT22;64576;50.460;4.866;2023-09-19T05:59:33;13.13;96.16
75899;DHT22;64576;50.460;4.866;2023-09-19T06:01:59;13.15;96.10
75899;DHT22;64576;50.460;4.866;2023-09-19T06:04:25;13.10;96.34
75899;DHT22;64576;50.460;4.866;2023-09-19T06:06:51;13.08;96.65
75899;DHT22;64576;50.460;4.866;2023-09-19T06:09:16;13.05;96.72
75899;DHT22;64576;50.460;4.866;2023-09-19T06:11:42;13.10;96.34
75899;DHT22;64576;50.460;4.866;2023-09-19T06:14:08;13.15;96.26
75899;DHT22;64576;50.460;4.866;2023-09-19T06:16:35;13.19;96.50
75899;DHT22;64576;50.460;4.866;2023-09-19T06:19:01;13.15;96.55
75899;DHT22;64576;50.460;4.866;2023-09-19T06:21:27;13.16;96.60
75899;DHT22;64576;50.460;4.866;2023-09-19T06:23:55;13.15;96.52
75899;DHT22;64576;50.460;4.866;2023-09-19T06:26:23;13.23;96.17
75899;DHT22;64576;50.460;4.866;2023-09-19T06:28:48;13.24;96.28
75899;DHT22;64576;50.460;4.866;2023-09-19T06:31:14;13.29;96.30
75899;DHT22;64576;50.460;4.866;2023-09-19T06:33:39;13.33;96.05
75899;DHT22;64576;50.460;4.866;2023-09-19T06:36:05;13.36;96.21
75899;DHT22;64576;50.460;4.866;2023-09-19T06:38:31;13.36;95.88
75899;DHT22;64576;50.460;4.866;2023-09-19T06:40:59;13.44;95.69
75899;DHT22;64576;50.460;4.866;2023-09-19T06:43:25;13.55;95.19
75899;DHT22;64576;50.460;4.866;2023-09-19T06:45:51;13.55;94.74
75899;DHT22;64576;50.460;4.866;2023-09-19T06:48:17;13.58;94.59
75899;DHT22;64576;50.460;4.866;2023-09-19T06:50:43;13.64;94.29
75899;DHT22;64576;50.460;4.866;2023-09-19T06:53:10;13.73;94.16
75899;DHT22;64576;50.460;4.866;2023-09-19T06:55:35;13.81;94.27
75899;DHT22;64576;50.460;4.866;2023-09-19T06:58:02;13.78;94.19
75899;DHT22;64576;50.460;4.866;2023-09-19T07:00:27;13.79;94.41
75899;DHT22;64576;50.460;4.866;2023-09-19T07:03:04;13.73;94.27
75899;DHT22;64576;50.460;4.866;2023-09-19T07:05:35;13.79;94.04
75899;DHT22;64576;50.460;4.866;2023-09-19T07:08:05;13.88;93.86
75899;DHT22;64576;50.460;4.866;2023-09-19T07:10:34;14.02;93.95
75899;DHT22;64576;50.460;4.866;2023-09-19T07:13:01;14.16;93.11
75899;DHT22;64576;50.460;4.866;2023-09-19T07:15:28;14.08;93.01
75899;DHT22;64576;50.460;4.866;2023-09-19T07:17:55;14.13;93.49
75899;DHT22;64576;50.460;4.866;2023-09-19T07:20:22;14.15;93.23
75899;DHT22;64576;50.460;4.866;2023-09-19T07:22:49;14.33;92.53
75899;DHT22;64576;50.460;4.866;2023-09-19T07:25:15;14.47;91.97
75899;DHT22;64576;50.460;4.866;2023-09-19T07:27:42;14.95;90.44
75899;DHT22;64576;50.460;4.866;2023-09-19T07:30:08;15.43;88.59
75899;DHT22;64576;50.460;4.866;2023-09-19T07:32:34;15.95;87.62
75899;DHT22;64576;50.460;4.866;2023-09-19T07:35:02;15.94;86.79
75899;DHT22;64576;50.460;4.866;2023-09-19T07:37:29;15.84;87.02
75899;DHT22;64576;50.460;4.866;2023-09-19T07:39:56;15.43;88.37
75899;DHT22;64576;50.460;4.866;2023-09-19T07:42:22;15.90;86.77
75899;DHT22;64576;50.460;4.866;2023-09-19T07:44:49;15.68;87.50
75899;DHT22;64576;50.460;4.866;2023-09-19T07:47:16;15.63;87.38
75899;DHT22;64576;50.460;4.866;2023-09-19T07:49:42;15.84;87.45
75899;DHT22;64576;50.460;4.866;2023-09-19T07:52:08;15.94;86.21
75899;DHT22;64576;50.460;4.866;2023-09-19T07:54:34;16.28;85.94
75899;DHT22;64576;50.460;4.866;2023-09-19T07:57:01;16.26;86.16
75899;DHT22;64576;50.460;4.866;2023-09-19T07:59:27;16.06;86.09
75899;DHT22;64576;50.460;4.866;2023-09-19T08:01:53;15.86;86.72
75899;DHT22;64576;50.460;4.866;2023-09-19T08:04:18;16.11;85.81
75899;DHT22;64576;50.460;4.866;2023-09-19T08:06:44;16.35;85.47
75899;DHT22;64576;50.460;4.866;2023-09-19T08:09:10;16.30;85.33
75899;DHT22;64576;50.460;4.866;2023-09-19T08:11:36;16.01;86.00
75899;DHT22;64576;50.460;4.866;2023-09-19T08:14:02;16.80;83.92
75899;DHT22;64576;50.460;4.866;2023-09-19T08:16:27;16.74;83.21
75899;DHT22;64576;50.460;4.866;2023-09-19T08:18:53;16.84;83.40
75899;DHT22;64576;50.460;4.866;2023-09-19T08:21:20;16.61;83.33
75899;DHT22;64576;50.460;4.866;2023-09-19T08:23:45;16.46;83.44
75899;DHT22;64576;50.460;4.866;2023-09-19T08:26:11;17.21;82.20
75899;DHT22;64576;50.460;4.866;2023-09-19T08:28:36;17.47;81.75
75899;DHT22;64576;50.460;4.866;2023-09-19T08:31:06;16.83;81.57
75899;DHT22;64576;50.460;4.866;2023-09-19T08:33:32;17.14;83.00
75899;DHT22;64576;50.460;4.866;2023-09-19T08:35:58;17.19;82.84
75899;DHT22;64576;50.460;4.866;2023-09-19T08:38:24;16.87;82.50
75899;DHT22;64576;50.460;4.866;2023-09-19T08:40:51;16.98;80.43
75899;DHT22;64576;50.460;4.866;2023-09-19T08:43:16;16.84;81.07
75899;DHT22;64576;50.460;4.866;2023-09-19T08:45:41;17.12;80.86
75899;DHT22;64576;50.460;4.866;2023-09-19T08:48:19;17.07;81.01
75899;DHT22;64576;50.460;4.866;2023-09-19T08:53:31;17.17;80.43
75899;DHT22;64576;50.460;4.866;2023-09-19T08:56:00;16.66;81.79
75899;DHT22;64576;50.460;4.866;2023-09-19T08:58:31;17.15;81.00
75899;DHT22;64576;50.460;4.866;2023-09-19T09:01:00;16.67;81.87
75899;DHT22;64576;50.460;4.866;2023-09-19T09:03:29;16.67;82.03
75899;DHT22;64576;50.460;4.866;2023-09-19T09:05:57;17.05;81.57
75899;DHT22;64576;50.460;4.866;2023-09-19T09:08:23;17.42;81.07
75899;DHT22;64576;50.460;4.866;2023-09-19T09:10:50;17.52;79.60
75899;DHT22;64576;50.460;4.866;2023-09-19T09:13:16;18.29;77.60
75899;DHT22;64576;50.460;4.866;2023-09-19T09:15:42;17.79;78.86
75899;DHT22;64576;50.460;4.866;2023-09-19T09:18:10;18.28;78.33
75899;DHT22;64576;50.460;4.866;2023-09-19T09:20:35;18.00;78.30
75899;DHT22;64576;50.460;4.866;2023-09-19T09:23:01;17.96;78.26
75899;DHT22;64576;50.460;4.866;2023-09-19T09:25:51;18.18;76.44
75899;DHT22;64576;50.460;4.866;2023-09-19T09:28:26;17.57;78.10
75899;DHT22;64576;50.460;4.866;2023-09-19T09:30:53;17.79;77.97
75899;DHT22;64576;50.460;4.866;2023-09-19T09:33:19;18.19;77.31
75899;DHT22;64576;50.460;4.866;2023-09-19T09:35:57;18.48;76.33
75899;DHT22;64576;50.460;4.866;2023-09-19T09:38:26;19.14;74.50
75899;DHT22;64576;50.460;4.866;2023-09-19T09:40:57;19.01;75.01
75899;DHT22;64576;50.460;4.866;2023-09-19T09:43:36;19.44;73.91
75899;DHT22;64576;50.460;4.866;2023-09-19T09:49:02;19.11;74.04
75899;DHT22;64576;50.460;4.866;2023-09-19T09:51:51;18.63;74.79
75899;DHT22;64576;50.460;4.866;2023-09-19T09:54:25;18.83;73.93
75899;DHT22;64576;50.460;4.866;2023-09-19T09:59:20;18.92;74.01
75899;DHT22;64576;50.460;4.866;2023-09-19T10:01:49;19.54;73.21
75899;DHT22;64576;50.460;4.866;2023-09-19T10:04:27;18.53;73.44
75899;DHT22;64576;50.460;4.866;2023-09-19T10:07:02;19.20;72.12
75899;DHT22;64576;50.460;4.866;2023-09-19T10:09:45;18.19;75.25
75899;DHT22;64576;50.460;4.866;2023-09-19T10:12:11;18.63;74.92
75899;DHT22;64576;50.460;4.866;2023-09-19T10:14:38;19.11;73.37
75899;DHT22;64576;50.460;4.866;2023-09-19T10:17:09;19.07;73.20
75899;DHT22;64576;50.460;4.866;2023-09-19T10:19:56;18.74;72.34
75899;DHT22;64576;50.460;4.866;2023-09-19T10:22:34;18.62;74.35
75899;DHT22;64576;50.460;4.866;2023-09-19T10:25:02;18.73;74.56
75899;DHT22;64576;50.460;4.866;2023-09-19T10:27:30;18.63;73.33
75899;DHT22;64576;50.460;4.866;2023-09-19T10:30:05;18.18;74.16
75899;DHT22;64576;50.460;4.866;2023-09-19T10:32:32;18.60;73.78
75899;DHT22;64576;50.460;4.866;2023-09-19T10:35:01;18.38;74.67
75899;DHT22;64576;50.460;4.866;2023-09-19T10:37:27;18.67;73.68
75899;DHT22;64576;50.460;4.866;2023-09-19T10:39:56;18.28;74.04
75899;DHT22;64576;50.460;4.866;2023-09-19T10:42:23;18.74;73.75
75899;DHT22;64576;50.460;4.866;2023-09-19T10:44:52;18.21;74.27
75899;DHT22;64576;50.460;4.866;2023-09-19T10:47:20;18.25;74.67
75899;DHT22;64576;50.460;4.866;2023-09-19T10:49:49;18.53;74.28
75899;DHT22;64576;50.460;4.866;2023-09-19T10:52:19;18.10;74.90
75899;DHT22;64576;50.460;4.866;2023-09-19T10:54:48;17.81;75.07
75899;DHT22;64576;50.460;4.866;2023-09-19T10:57:24;18.25;74.88
75899;DHT22;64576;50.460;4.866;2023-09-19T11:00:06;18.15;75.32
75899;DHT22;64576;50.460;4.866;2023-09-19T11:05:37;18.00;75.03
75899;DHT22;64576;50.460;4.866;2023-09-19T11:08:07;18.27;74.56
75899;DHT22;64576;50.460;4.866;2023-09-19T11:10:48;18.48;74.05
75899;DHT22;64576;50.460;4.866;2023-09-19T11:13:28;18.90;73.49
75899;DHT22;64576;50.460;4.866;2023-09-19T11:26:47;20.99;67.99
75899;DHT22;64576;50.460;4.866;2023-09-19T11:29:29;20.83;67.59
75899;DHT22;64576;50.460;4.866;2023-09-19T11:31:56;20.35;68.57
75899;DHT22;64576;50.460;4.866;2023-09-19T11:34:42;20.23;68.93
75899;DHT22;64576;50.460;4.866;2023-09-19T11:39:38;19.28;71.53
75899;DHT22;64576;50.460;4.866;2023-09-19T11:42:48;19.75;71.17
75899;DHT22;64576;50.460;4.866;2023-09-19T11:48:15;20.45;69.02
75899;DHT22;64576;50.460;4.866;2023-09-19T11:50:44;19.72;71.24
75899;DHT22;64576;50.460;4.866;2023-09-19T11:53:11;19.92;71.17
75899;DHT22;64576;50.460;4.866;2023-09-19T11:55:41;21.34;67.75
75899;DHT22;64576;50.460;4.866;2023-09-19T11:58:08;21.20;68.12
75899;DHT22;64576;50.460;4.866;2023-09-19T12:00:35;20.73;68.70
75899;DHT22;64576;50.460;4.866;2023-09-19T12:03:10;20.35;70.12
75899;DHT22;64576;50.460;4.866;2023-09-19T12:05:36;20.28;69.80
75899;DHT22;64576;50.460;4.866;2023-09-19T12:08:03;19.87;71.06
75899;DHT22;64576;50.460;4.866;2023-09-19T12:10:32;19.01;72.72
75899;DHT22;64576;50.460;4.866;2023-09-19T12:12:58;20.62;69.69
75899;DHT22;64576;50.460;4.866;2023-09-19T12:15:25;21.45;67.20
75899;DHT22;64576;50.460;4.866;2023-09-19T12:17:59;22.23;65.26
75899;DHT22;64576;50.460;4.866;2023-09-19T12:20:40;20.23;69.06
75899;DHT22;64576;50.460;4.866;2023-09-19T12:23:13;20.37;69.68
75899;DHT22;64576;50.460;4.866;2023-09-19T12:25:45;20.06;70.95
75899;DHT22;64576;50.460;4.866;2023-09-19T12:28:14;19.67;72.12
75899;DHT22;64576;50.460;4.866;2023-09-19T12:30:40;20.17;70.28
75899;DHT22;64576;50.460;4.866;2023-09-19T12:33:18;20.44;69.70
75899;DHT22;64576;50.460;4.866;2023-09-19T12:35:45;21.23;68.16
75899;DHT22;64576;50.460;4.866;2023-09-19T12:38:11;21.57;66.53
75899;DHT22;64576;50.460;4.866;2023-09-19T12:40:39;20.68;68.65
75899;DHT22;64576;50.460;4.866;2023-09-19T12:43:08;20.07;70.56
75899;DHT22;64576;50.460;4.866;2023-09-19T12:45:34;20.11;71.18
75899;DHT22;64576;50.460;4.866;2023-09-19T12:48:23;19.89;71.28
75899;DHT22;64576;50.460;4.866;2023-09-19T12:51:14;20.16;70.24
75899;DHT22;64576;50.460;4.866;2023-09-19T12:53:46;20.18;70.69
75899;DHT22;64576;50.460;4.866;2023-09-19T12:56:15;20.69;69.20
75899;DHT22;64576;50.460;4.866;2023-09-19T12:58:56;19.98;70.75
75899;DHT22;64576;50.460;4.866;2023-09-19T13:01:24;20.24;69.87
75899;DHT22;64576;50.460;4.866;2023-09-19T13:04:15;20.09;69.32
75899;DHT22;64576;50.460;4.866;2023-09-19T13:06:50;20.21;70.01
75899;DHT22;64576;50.460;4.866;2023-09-19T13:09:18;19.54;71.74
75899;DHT22;64576;50.460;4.866;2023-09-19T13:11:45;19.58;71.99
75899;DHT22;64576;50.460;4.866;2023-09-19T13:14:17;19.79;71.96
75899;DHT22;64576;50.460;4.866;2023-09-19T13:17:06;19.65;72.26
75899;DHT22;64576;50.460;4.866;2023-09-19T13:19:46;19.17;73.20
75899;DHT22;64576;50.460;4.866;2023-09-19T13:25:04;19.07;73.80
75899;DHT22;64576;50.460;4.866;2023-09-19T13:27:29;19.45;73.06
75899;DHT22;64576;50.460;4.866;2023-09-19T13:29:55;19.32;73.81
75899;DHT22;64576;50.460;4.866;2023-09-19T13:32:20;19.45;73.13
75899;DHT22;64576;50.460;4.866;2023-09-19T13:34:45;18.97;73.67
75899;DHT22;64576;50.460;4.866;2023-09-19T13:37:11;19.06;72.97
75899;DHT22;64576;50.460;4.866;2023-09-19T13:39:38;18.92;74.03
75899;DHT22;64576;50.460;4.866;2023-09-19T13:42:08;18.86;74.07
75899;DHT22;64576;50.460;4.866;2023-09-19T13:44:37;18.87;74.06
75899;DHT22;64576;50.460;4.866;2023-09-19T13:47:03;18.79;73.91
75899;DHT22;64576;50.460;4.866;2023-09-19T13:49:35;18.73;73.99
75899;DHT22;64576;50.460;4.866;2023-09-19T13:52:00;18.73;73.80
75899;DHT22;64576;50.460;4.866;2023-09-19T13:54:28;19.39;72.04
75899;DHT22;64576;50.460;4.866;2023-09-19T13:56:53;21.08;68.60
75899;DHT22;64576;50.460;4.866;2023-09-19T13:59:19;20.31;70.73
75899;DHT22;64576;50.460;4.866;2023-09-19T14:01:48;21.41;67.89
75899;DHT22;64576;50.460;4.866;2023-09-19T14:04:14;22.30;65.41
75899;DHT22;64576;50.460;4.866;2023-09-19T14:06:42;20.45;69.68
75899;DHT22;64576;50.460;4.866;2023-09-19T14:09:07;19.86;71.35
75899;DHT22;64576;50.460;4.866;2023-09-19T14:11:33;19.49;72.74
75899;DHT22;64576;50.460;4.866;2023-09-19T14:13:59;19.12;73.73
75899;DHT22;64576;50.460;4.866;2023-09-19T14:16:25;19.22;73.93
75899;DHT22;64576;50.460;4.866;2023-09-19T14:18:55;18.93;74.59
75899;DHT22;64576;50.460;4.866;2023-09-19T14:21:20;18.55;75.21
75899;DHT22;64576;50.460;4.866;2023-09-19T14:23:46;18.49;75.74
75899;DHT22;64576;50.460;4.866;2023-09-19T14:26:12;18.65;75.56
75899;DHT22;64576;50.460;4.866;2023-09-19T14:28:37;18.52;75.87
75899;DHT22;64576;50.460;4.866;2023-09-19T14:31:08;18.44;75.90
75899;DHT22;64576;50.460;4.866;2023-09-19T14:33:34;18.11;76.50
75899;DHT22;64576;50.460;4.866;2023-09-19T14:36:03;18.19;76.93
75899;DHT22;64576;50.460;4.866;2023-09-19T14:38:31;18.11;76.37
75899;DHT22;64576;50.460;4.866;2023-09-19T14:41:00;18.14;76.63
75899;DHT22;64576;50.460;4.866;2023-09-19T14:43:26;18.17;76.71
75899;DHT22;64576;50.460;4.866;2023-09-19T14:45:52;18.12;76.62
75899;DHT22;64576;50.460;4.866;2023-09-19T14:48:17;18.25;76.41
75899;DHT22;64576;50.460;4.866;2023-09-19T14:50:42;18.35;76.02
75899;DHT22;64576;50.460;4.866;2023-09-19T14:53:09;18.52;75.75
75899;DHT22;64576;50.460;4.866;2023-09-19T14:55:38;18.62;75.41
75899;DHT22;64576;50.460;4.866;2023-09-19T14:58:07;18.66;74.99
75899;DHT22;64576;50.460;4.866;2023-09-19T15:00:33;18.87;75.13
75899;DHT22;64576;50.460;4.866;2023-09-19T15:02:59;18.87;75.18
75899;DHT22;64576;50.460;4.866;2023-09-19T15:05:25;19.11;74.83
75899;DHT22;64576;50.460;4.866;2023-09-19T15:07:50;18.83;75.34
75899;DHT22;64576;50.460;4.866;2023-09-19T15:10:15;18.65;75.50
75899;DHT22;64576;50.460;4.866;2023-09-19T15:12:41;18.49;76.03
75899;DHT22;64576;50.460;4.866;2023-09-19T15:15:07;18.45;76.26
75899;DHT22;64576;50.460;4.866;2023-09-19T15:17:34;18.38;76.29
75899;DHT22;64576;50.460;4.866;2023-09-19T15:20:01;18.60;75.63
75899;DHT22;64576;50.460;4.866;2023-09-19T15:22:27;19.04;75.40
75899;DHT22;64576;50.460;4.866;2023-09-19T15:24:52;19.85;72.53
75899;DHT22;64576;50.460;4.866;2023-09-19T15:27:18;19.42;74.41
75899;DHT22;64576;50.460;4.866;2023-09-19T15:29:45;19.65;74.18
75899;DHT22;64576;50.460;4.866;2023-09-19T15:32:11;19.01;75.84
75899;DHT22;64576;50.460;4.866;2023-09-19T15:34:36;18.74;75.94
75899;DHT22;64576;50.460;4.866;2023-09-19T15:37:02;18.86;76.11
75899;DHT22;64576;50.460;4.866;2023-09-19T15:39:30;18.67;76.03
75899;DHT22;64576;50.460;4.866;2023-09-19T15:41:59;18.52;76.70
75899;DHT22;64576;50.460;4.866;2023-09-19T15:44:24;18.36;77.02
75899;DHT22;64576;50.460;4.866;2023-09-19T15:46:52;18.36;77.28
75899;DHT22;64576;50.460;4.866;2023-09-19T15:49:18;18.38;77.26
75899;DHT22;64576;50.460;4.866;2023-09-19T15:51:43;18.17;77.40
75899;DHT22;64576;50.460;4.866;2023-09-19T15:54:11;18.01;77.83
75899;DHT22;64576;50.460;4.866;2023-09-19T15:56:39;18.00;77.88
75899;DHT22;64576;50.460;4.866;2023-09-19T15:59:06;17.97;77.83
75899;DHT22;64576;50.460;4.866;2023-09-19T16:01:32;17.98;77.99
75899;DHT22;64576;50.460;4.866;2023-09-19T16:03:57;17.97;77.88
75899;DHT22;64576;50.460;4.866;2023-09-19T16:06:28;17.97;77.76
75899;DHT22;64576;50.460;4.866;2023-09-19T16:08:55;18.08;77.73
75899;DHT22;64576;50.460;4.866;2023-09-19T16:11:22;18.07;77.13
75899;DHT22;64576;50.460;4.866;2023-09-19T16:13:49;18.01;77.33
75899;DHT22;64576;50.460;4.866;2023-09-19T16:16:15;18.12;77.49
75899;DHT22;64576;50.460;4.866;2023-09-19T16:19:01;18.02;77.55
75899;DHT22;64576;50.460;4.866;2023-09-19T16:21:29;18.01;77.51
75899;DHT22;64576;50.460;4.866;2023-09-19T16:23:56;18.05;77.33